Terminal Aerodrome Forecast
Issued by NWS Albany, NY

Home | Current Version | Previous Version | Text Only | Print | Product List | Glossary On
Versions: 1 2 3 4 5 6 7 8 9 10 11 12 13 14 15 16 17 18 19 20 21 22 23 24 25 26 27
000
FTUS41 KALY 200532
TAFPOU
TAF
KPOU 200532Z 2006/2106 02005KT P6SM OVC025
      TEMPO 2007/2009 SCT025 OVC035
     FM200900 VRB03KT P6SM SCT025 OVC035
      TEMPO 2009/2012 OVC025
     FM201500 14004KT P6SM SCT025 BKN040
     FM202200 VRB03KT P6SM VCSH BKN025 OVC040
     FM210200 VRB02KT 4SM -SHRA BR BKN015 OVC025=

USA.gov is the U.S. government's official web portal to all federal, state and local government web resources and services.